Time;durP1;ratioP1;P1;durP2;ratioP2;P2;SDS_P1;SDS_P2;PMS_P1;PMS_P2;Temp;Humidity;BMP_temperature;BMP_pressure;BME280_temperature;BME280_humidity;BME280_pressure;Samples;Min_cycle;Max_cycle;Signal;HPM_P1;HPM_P2
2023/05/11 00:01:06;;;;;;;10.20;4.70;;;;;;;11.28;56.71;98691.55;104632;1268;108648;-69
2023/05/11 00:03:34;;;;;;;7.60;4.50;;;;;;;11.26;57.28;98689.28;104730;1262;98026;-69
2023/05/11 00:06:02;;;;;;;8.30;4.90;;;;;;;11.20;57.34;98692.20;104654;1264;99223;-69
2023/05/11 00:08:29;;;;;;;7.50;4.60;;;;;;;11.15;57.58;98689.76;104870;1264;112086;-69
2023/05/11 00:10:56;;;;;;;6.50;4.40;;;;;;;11.11;57.50;98687.46;104538;1264;98035;-69
2023/05/11 00:13:24;;;;;;;8.70;4.90;;;;;;;11.08;57.68;98683.48;104544;1276;107507;-69
2023/05/11 00:15:52;;;;;;;10.20;5.00;;;;;;;11.05;57.61;98678.85;104731;1274;97953;-69
2023/05/11 00:18:19;;;;;;;6.30;4.40;;;;;;;11.02;57.83;98681.92;104848;1259;97948;-69
2023/05/11 00:20:46;;;;;;;7.90;4.70;;;;;;;10.96;57.81;98679.10;104717;1271;97925;-69
2023/05/11 00:23:13;;;;;;;6.80;4.30;;;;;;;10.91;57.94;98681.55;104757;1264;99115;-69
2023/05/11 00:25:40;;;;;;;10.60;4.70;;;;;;;10.88;58.08;98679.79;104805;1261;99279;-69
2023/05/11 00:28:07;;;;;;;7.50;4.80;;;;;;;10.86;58.29;98675.98;104705;1271;98820;-69
2023/05/11 00:30:34;;;;;;;7.00;4.60;;;;;;;10.81;58.41;98678.61;104786;1273;97916;-69
2023/05/11 00:33:01;;;;;;;8.60;4.80;;;;;;;10.71;58.79;98678.20;104838;1264;98183;-69
2023/05/11 00:35:29;;;;;;;7.70;5.00;;;;;;;10.64;58.50;98680.95;104629;1275;97972;-74
2023/05/11 00:37:56;;;;;;;10.00;4.70;;;;;;;10.63;58.96;98681.65;104654;1270;98037;-69
2023/05/11 00:40:24;;;;;;;8.50;5.20;;;;;;;10.56;59.21;98683.48;104808;1262;97922;-76
2023/05/11 00:42:51;;;;;;;10.80;5.10;;;;;;;10.52;59.16;98688.60;104561;1267;111165;-69
2023/05/11 00:45:18;;;;;;;6.90;5.30;;;;;;;10.52;59.21;98686.51;104698;1264;98018;-68
2023/05/11 00:47:45;;;;;;;6.80;4.80;;;;;;;10.50;59.02;98682.89;104778;1264;97974;-69
2023/05/11 00:50:12;;;;;;;9.20;4.40;;;;;;;10.48;59.01;98684.88;104772;1264;97925;-68
2023/05/11 00:52:41;;;;;;;7.10;4.90;;;;;;;10.47;58.85;98679.91;104630;1260;98550;-68
2023/05/11 00:55:09;;;;;;;6.90;5.00;;;;;;;10.45;59.22;98682.66;104804;1273;97954;-68
2023/05/11 00:57:37;;;;;;;7.70;4.80;;;;;;;10.38;59.38;98682.71;104818;1262;97991;-68
2023/05/11 01:00:06;;;;;;;11.40;5.60;;;;;;;10.35;59.41;98680.33;104872;1262;108408;-68
2023/05/11 01:02:33;;;;;;;9.30;5.80;;;;;;;10.29;59.63;98678.98;104719;1264;99222;-67
2023/05/11 01:05:04;;;;;;;8.30;4.90;;;;;;;10.22;59.87;98679.64;104670;1264;99601;-67
2023/05/11 01:08:07;;;;;;;11.10;5.20;;;;;;;10.16;59.97;98680.82;104610;1262;112173;-67
2023/05/11 01:11:10;;;;;;;7.70;5.00;;;;;;;10.14;59.81;98683.28;104662;1263;99133;-67
2023/05/11 01:14:00;;;;;;;11.80;5.50;;;;;;;10.16;59.83;98681.59;104727;1263;108796;-67
2023/05/11 01:16:45;;;;;;;7.50;5.20;;;;;;;10.11;60.50;98681.78;104758;1264;98728;-69
2023/05/11 01:19:42;;;;;;;8.20;5.20;;;;;;;10.00;60.91;98679.67;104448;1271;99089;-68
2023/05/11 01:22:38;;;;;;;8.00;5.20;;;;;;;9.90;61.36;98680.00;104407;1267;111844;-69
2023/05/11 01:25:10;;;;;;;9.10;5.80;;;;;;;9.83;61.72;98678.90;104075;1272;98347;-68
2023/05/11 01:27:52;;;;;;;9.60;5.70;;;;;;;9.78;61.76;98682.34;103990;1284;107681;-68
2023/05/11 01:31:12;;;;;;;10.50;5.70;;;;;;;9.74;61.97;98678.05;104106;1267;98042;-68
2023/05/11 01:33:46;;;;;;;9.90;5.70;;;;;;;9.70;61.83;98677.82;103550;1288;98393;-68
2023/05/11 01:36:16;;;;;;;10.50;5.50;;;;;;;9.71;61.74;98680.15;103678;1274;257781;-69
2023/05/11 01:38:47;;;;;;;10.50;5.80;;;;;;;9.71;62.04;98674.84;103747;1278;98230;-68
2023/05/11 01:41:18;;;;;;;9.60;5.50;;;;;;;9.66;62.20;98673.85;103636;1276;108572;-68
2023/05/11 01:43:57;;;;;;;13.00;5.20;;;;;;;9.61;62.48;98675.10;103463;1274;98061;-68
2023/05/11 01:46:26;;;;;;;8.00;5.30;;;;;;;9.56;63.07;98677.52;103769;1276;97937;-69
2023/05/11 01:48:56;;;;;;;13.60;5.20;;;;;;;9.47;63.38;98682.67;103787;1277;112214;-69
2023/05/11 01:51:27;;;;;;;8.00;5.60;;;;;;;9.38;63.53;98677.66;103752;1277;99021;-69
2023/05/11 01:53:57;;;;;;;9.90;5.90;;;;;;;9.31;63.61;98679.33;103295;1274;107675;-68
2023/05/11 01:56:26;;;;;;;8.50;6.00;;;;;;;9.25;63.82;98680.65;103523;1277;97862;-68
2023/05/11 01:58:56;;;;;;;8.10;5.30;;;;;;;9.21;63.72;98679.32;103633;1273;98650;-72
2023/05/11 02:01:25;;;;;;;9.90;5.40;;;;;;;9.17;64.67;98679.08;103583;1279;111272;-74
2023/05/11 02:03:54;;;;;;;10.30;5.60;;;;;;;9.09;65.15;98677.36;104098;1264;97974;-68
2023/05/11 02:06:24;;;;;;;11.00;6.30;;;;;;;9.01;65.41;98682.43;104575;1262;108462;-68
2023/05/11 02:08:52;;;;;;;8.90;5.90;;;;;;;8.94;65.80;98680.64;104858;1264;98056;-68
2023/05/11 02:11:23;;;;;;;9.70;6.10;;;;;;;8.90;65.62;98683.61;104700;1260;98017;-69
2023/05/11 02:13:54;;;;;;;10.70;6.00;;;;;;;8.87;65.75;98685.30;104699;1264;112143;-68
2023/05/11 02:16:23;;;;;;;9.40;6.10;;;;;;;8.83;66.25;98683.33;104799;1263;99135;-71
2023/05/11 02:18:52;;;;;;;12.60;6.30;;;;;;;8.73;67.27;98686.73;104718;1273;108605;-68
2023/05/11 02:21:19;;;;;;;10.20;5.90;;;;;;;8.63;67.11;98680.48;104901;1263;99251;-68
2023/05/11 02:23:48;;;;;;;9.90;6.30;;;;;;;8.59;67.06;98679.20;104622;1262;97971;-67
2023/05/11 02:26:15;;;;;;;11.00;6.40;;;;;;;8.59;66.70;98681.27;104700;1263;112957;-68
2023/05/11 02:28:43;;;;;;;10.50;6.20;;;;;;;8.55;66.86;98680.17;104702;1263;98117;-68
2023/05/11 02:31:19;;;;;;;11.40;6.30;;;;;;;8.48;67.45;98683.27;104839;1263;98017;-68
2023/05/11 02:33:49;;;;;;;13.80;6.60;;;;;;;8.40;67.75;98682.55;104736;1262;99225;-68
2023/05/11 02:36:22;;;;;;;11.60;6.00;;;;;;;8.31;68.14;98684.59;104571;1260;100029;-69
2023/05/11 02:38:55;;;;;;;8.10;5.60;;;;;;;8.25;67.67;98681.14;104844;1262;112187;-69
2023/05/11 02:41:27;;;;;;;11.60;6.20;;;;;;;8.23;68.13;98684.83;104709;1262;99101;-69
2023/05/11 02:43:58;;;;;;;12.70;6.00;;;;;;;8.20;68.20;98682.70;104647;1262;108592;-69
2023/05/11 02:46:30;;;;;;;11.70;6.90;;;;;;;8.21;68.34;98683.23;104555;1263;98146;-69
2023/05/11 02:49:01;;;;;;;9.90;6.20;;;;;;;8.21;68.28;98677.52;104862;1264;98815;-68
2023/05/11 02:51:35;;;;;;;12.20;6.20;;;;;;;8.21;68.04;98680.39;104563;1262;112766;-68
2023/05/11 02:54:06;;;;;;;8.80;6.10;;;;;;;8.20;68.22;98680.45;104678;1263;99132;-69
2023/05/11 02:56:34;;;;;;;8.30;6.20;;;;;;;8.14;68.46;98678.75;104856;1260;108800;-69
2023/05/11 02:59:02;;;;;;;8.70;5.90;;;;;;;8.03;69.83;98681.91;104388;1268;98058;-69
2023/05/11 03:01:29;;;;;;;9.50;5.40;;;;;;;7.97;69.44;98677.70;104819;1260;97967;-68
2023/05/11 03:03:56;;;;;;;12.00;6.20;;;;;;;7.95;69.17;98677.57;104540;1262;112542;-70
2023/05/11 03:06:24;;;;;;;8.80;5.60;;;;;;;7.90;69.79;98680.91;104478;1270;98605;-71
2023/05/11 03:08:52;;;;;;;8.90;6.00;;;;;;;7.83;69.56;98675.55;104783;1262;106764;-70
2023/05/11 03:11:20;;;;;;;8.80;5.60;;;;;;;7.80;69.50;98677.94;104481;1262;99404;-70
2023/05/11 03:13:49;;;;;;;8.80;5.70;;;;;;;7.75;69.79;98677.41;104587;1264;97938;-71
2023/05/11 03:16:17;;;;;;;8.10;5.20;;;;;;;7.66;69.80;98678.73;104487;1260;110929;-71
2023/05/11 03:18:48;;;;;;;10.50;6.40;;;;;;;7.60;70.11;98678.69;104403;1260;98025;-75
2023/05/11 03:21:20;;;;;;;10.50;6.20;;;;;;;7.57;70.47;98681.14;104629;1272;108813;-72
2023/05/11 03:23:48;;;;;;;10.70;5.70;;;;;;;7.54;70.35;98678.84;104787;1262;97999;-72
2023/05/11 03:26:20;;;;;;;8.00;5.70;;;;;;;7.54;70.09;98676.33;104950;1258;97999;-71
2023/05/11 03:28:51;;;;;;;12.20;6.40;;;;;;;7.57;69.93;98680.88;104868;1262;112338;-71
2023/05/11 03:31:19;;;;;;;13.70;6.20;;;;;;;7.59;70.21;98684.92;104844;1262;98958;-70
2023/05/11 03:33:46;;;;;;;9.40;5.50;;;;;;;7.58;70.22;98682.92;104876;1264;108607;-70
2023/05/11 03:36:14;;;;;;;9.80;5.60;;;;;;;7.59;70.12;98681.77;104832;1262;98082;-71
2023/05/11 03:38:45;;;;;;;9.50;6.00;;;;;;;7.67;69.71;98683.86;104889;1261;98235;-70
2023/05/11 03:41:17;;;;;;;10.70;6.10;;;;;;;7.73;70.26;98683.12;104813;1262;112137;-71
2023/05/11 03:43:46;;;;;;;10.00;6.10;;;;;;;7.74;69.93;98680.30;104763;1260;98375;-70
2023/05/11 03:46:20;;;;;;;9.80;5.40;;;;;;;7.81;69.74;98684.30;104662;1260;108694;-69
2023/05/11 03:48:48;;;;;;;9.20;5.50;;;;;;;7.86;69.59;98678.52;104387;1266;98005;-69
2023/05/11 03:51:16;;;;;;;11.90;5.50;;;;;;;7.86;69.27;98682.55;104529;1266;98303;-70
2023/05/11 03:53:43;;;;;;;10.60;4.70;;;;;;;7.89;69.43;98686.38;104856;1263;112287;-70
2023/05/11 03:56:10;;;;;;;12.20;5.90;;;;;;;7.88;69.93;98683.62;104893;1262;97902;-70
2023/05/11 03:58:40;;;;;;;11.60;6.90;;;;;;;7.91;69.49;98684.55;104836;1274;98116;-69
2023/05/11 04:01:08;;;;;;;8.70;6.10;;;;;;;8.03;69.29;98684.42;104860;1263;97935;-69
2023/05/11 04:03:50;;;;;;;9.00;5.50;;;;;;;8.15;69.51;98690.65;104908;1260;101407;-69
2023/05/11 04:06:18;;;;;;;9.30;5.60;;;;;;;8.23;69.73;98691.08;104735;1263;111236;-71
2023/05/11 04:08:46;;;;;;;13.50;6.10;;;;;;;8.34;69.30;98689.69;104791;1262;99318;-71
2023/05/11 04:11:13;;;;;;;8.80;5.30;;;;;;;8.47;68.77;98688.38;104742;1260;108565;-71
2023/05/11 04:13:40;;;;;;;11.10;5.50;;;;;;;8.61;68.36;98690.14;104482;1261;98703;-71
2023/05/11 04:16:07;;;;;;;9.20;6.20;;;;;;;8.76;68.05;98696.52;104799;1262;99241;-71
2023/05/11 04:18:34;;;;;;;14.50;6.00;;;;;;;8.86;67.67;98700.52;104820;1262;98061;-71
2023/05/11 04:21:01;;;;;;;12.50;5.90;;;;;;;8.99;67.48;98699.48;104714;1262;97918;-71
2023/05/11 04:23:28;;;;;;;9.80;6.00;;;;;;;9.05;67.11;98702.10;104651;1262;97950;-71
2023/05/11 04:25:55;;;;;;;14.20;6.20;;;;;;;9.07;67.00;98699.77;104689;1262;97937;-71
2023/05/11 04:28:26;;;;;;;9.40;6.00;;;;;;;9.07;66.71;98701.84;104542;1260;97919;-72
2023/05/11 04:30:54;;;;;;;;;;;;;;;9.05;66.88;98700.62;104853;1262;113481;-73
2023/05/11 04:33:21;;;;;;;8.80;5.20;;;;;;;9.04;66.79;98703.98;104697;1264;97983;-72
2023/05/11 04:35:53;;;;;;;9.70;6.10;;;;;;;9.03;66.63;98701.05;104746;1263;98132;-71
2023/05/11 04:38:21;;;;;;;10.80;5.60;;;;;;;8.99;66.50;98700.67;104774;1262;97924;-71
2023/05/11 04:40:49;;;;;;;11.20;5.40;;;;;;;9.01;66.88;98697.88;104651;1260;98243;-73
2023/05/11 04:43:17;;;;;;;10.10;5.30;;;;;;;9.09;66.60;98700.20;104656;1261;111828;-72
2023/05/11 04:45:48;;;;;;;7.90;5.40;;;;;;;9.16;66.15;98699.27;104538;1260;98561;-73
2023/05/11 04:48:15;;;;;;;9.30;5.60;;;;;;;9.24;65.58;98701.52;104792;1262;106820;-69
2023/05/11 04:50:46;;;;;;;7.60;4.30;;;;;;;9.37;65.49;98698.92;104848;1269;99216;-70
2023/05/11 04:53:13;;;;;;;8.00;5.30;;;;;;;9.42;64.82;98697.33;104935;1262;97844;-70
2023/05/11 04:55:40;;;;;;;9.50;5.60;;;;;;;9.38;64.77;98699.16;104717;1275;98835;-71
2023/05/11 04:58:07;;;;;;;8.90;5.20;;;;;;;9.40;65.21;98702.88;104793;1260;99236;-71
2023/05/11 05:00:35;;;;;;;9.10;5.30;;;;;;;9.50;64.74;98704.34;104817;1262;99226;-71
2023/05/11 05:03:02;;;;;;;8.90;5.40;;;;;;;9.61;64.98;98703.07;104818;1262;99225;-70
2023/05/11 05:05:29;;;;;;;10.20;5.40;;;;;;;9.78;64.61;98701.94;104857;1261;99049;-70
2023/05/11 05:07:56;;;;;;;12.50;5.50;;;;;;;9.87;64.40;98703.67;104702;1275;97841;-70
2023/05/11 05:10:25;;;;;;;8.00;5.30;;;;;;;9.98;64.31;98704.48;104755;1261;98012;-70
2023/05/11 05:13:00;;;;;;;10.00;5.40;;;;;;;10.19;64.07;98706.61;104817;1262;108091;-70
2023/05/11 05:15:27;;;;;;;10.50;5.70;;;;;;;10.36;63.47;98710.48;104732;1260;99208;-69
2023/05/11 05:17:54;;;;;;;7.20;4.30;;;;;;;10.50;63.35;98707.05;104623;1264;97916;-68
2023/05/11 05:20:21;;;;;;;7.80;5.40;;;;;;;10.57;62.94;98709.63;104660;1262;98011;-69
2023/05/11 05:22:48;;;;;;;6.20;3.80;;;;;;;10.62;62.79;98710.72;104498;1262;98005;-70
2023/05/11 05:25:15;;;;;;;6.80;3.90;;;;;;;10.62;62.23;98712.92;104431;1281;98595;-70
2023/05/11 05:27:42;;;;;;;7.70;5.30;;;;;;;10.56;62.10;98711.06;104614;1262;98011;-69
2023/05/11 05:30:10;;;;;;;10.30;5.20;;;;;;;10.57;61.96;98713.74;104651;1270;97841;-65
2023/05/11 05:32:37;;;;;;;6.90;4.80;;;;;;;10.57;62.77;98711.39;104701;1262;98008;-69
2023/05/11 05:35:05;;;;;;;10.30;5.30;;;;;;;10.70;62.13;98716.10;104836;1262;97947;-71
2023/05/11 05:37:32;;;;;;;7.70;5.30;;;;;;;10.72;61.65;98721.92;104591;1267;97969;-73
2023/05/11 05:39:59;;;;;;;8.10;5.10;;;;;;;10.76;61.71;98719.45;104651;1262;98028;-70
2023/05/11 05:42:26;;;;;;;8.30;5.20;;;;;;;10.85;62.00;98715.08;104570;1260;97923;-70
2023/05/11 05:44:53;;;;;;;8.10;5.30;;;;;;;10.89;61.60;98721.49;104566;1274;98077;-70
2023/05/11 05:47:20;;;;;;;9.20;5.20;;;;;;;10.95;61.87;98721.48;104724;1262;97930;-70
2023/05/11 05:49:47;;;;;;;7.60;5.40;;;;;;;11.17;61.39;98719.23;104707;1258;98000;-70
2023/05/11 05:52:15;;;;;;;10.10;5.50;;;;;;;11.38;60.96;98721.67;104815;1262;98026;-70
2023/05/11 05:54:42;;;;;;;9.20;5.20;;;;;;;11.47;61.12;98720.48;104811;1266;98018;-70
2023/05/11 05:57:09;;;;;;;8.60;5.60;;;;;;;11.69;61.24;98719.58;104773;1262;97946;-70
2023/05/11 05:59:36;;;;;;;10.20;6.30;;;;;;;12.00;60.45;98722.73;104508;1260;99260;-70
2023/05/11 06:02:03;;;;;;;9.40;6.30;;;;;;;12.17;60.37;98722.85;104489;1258;98144;-71
2023/05/11 06:04:30;;;;;;;8.50;4.90;;;;;;;12.43;60.13;98719.56;104630;1263;97932;-71
2023/05/11 06:06:57;;;;;;;11.80;6.70;;;;;;;12.59;59.28;98721.23;104875;1263;98004;-75
2023/05/11 06:09:24;;;;;;;12.40;6.20;;;;;;;12.66;59.52;98722.61;104887;1262;97978;-72
2023/05/11 06:11:53;;;;;;;7.50;4.60;;;;;;;12.87;59.39;98723.50;104722;1265;97938;-71
2023/05/11 06:14:21;;;;;;;7.20;4.70;;;;;;;12.93;58.17;98725.30;104711;1262;98167;-71
2023/05/11 06:16:48;;;;;;;7.40;5.40;;;;;;;12.83;58.04;98726.55;104733;1263;111909;-72
2023/05/11 06:19:15;;;;;;;8.30;5.60;;;;;;;12.80;58.10;98725.63;104650;1266;97929;-72
2023/05/11 06:21:44;;;;;;;7.10;5.30;;;;;;;12.73;58.46;98725.48;104589;1264;97942;-71
2023/05/11 06:24:11;;;;;;;8.50;5.40;;;;;;;12.80;58.76;98727.75;104546;1260;97957;-72
2023/05/11 06:26:40;;;;;;;9.90;5.20;;;;;;;12.89;58.42;98726.65;104720;1264;98225;-72
2023/05/11 06:29:07;;;;;;;8.10;5.10;;;;;;;12.88;58.15;98727.37;104683;1264;99129;-72
2023/05/11 06:31:35;;;;;;;7.20;5.20;;;;;;;12.92;58.56;98729.34;104631;1264;99231;-71
2023/05/11 06:34:03;;;;;;;8.70;5.50;;;;;;;13.04;58.30;98733.48;104532;1276;108716;-72
2023/05/11 06:36:31;;;;;;;8.40;5.40;;;;;;;13.31;58.21;98734.10;104490;1264;99315;-71
2023/05/11 06:38:58;;;;;;;7.50;4.80;;;;;;;13.69;57.63;98736.27;104522;1265;98042;-71
2023/05/11 06:41:25;;;;;;;7.70;4.90;;;;;;;13.87;56.29;98734.44;104474;1262;97916;-71
2023/05/11 06:43:52;;;;;;;8.50;5.10;;;;;;;14.05;56.47;98733.68;104591;1265;98456;-70
2023/05/11 06:46:18;;;;;;;8.70;4.90;;;;;;;14.37;56.12;98736.61;104574;1261;99226;-73
2023/05/11 06:48:46;;;;;;;9.50;5.40;;;;;;;14.69;55.62;98731.62;104413;1266;99238;-72
2023/05/11 06:51:13;;;;;;;12.50;5.70;;;;;;;14.91;54.24;98732.52;104673;1263;99227;-71
2023/05/11 06:53:40;;;;;;;6.20;4.70;;;;;;;14.95;53.79;98727.30;104695;1260;97949;-73
2023/05/11 06:56:07;;;;;;;7.90;4.70;;;;;;;14.96;53.50;98725.46;104688;1264;98022;-73
2023/05/11 06:58:35;;;;;;;6.20;4.30;;;;;;;15.07;53.12;98725.11;104488;1264;98336;-75
2023/05/11 07:01:06;;;;;;;5.10;4.00;;;;;;;15.19;51.60;98724.73;104600;1260;97918;-76
2023/05/11 07:03:34;;;;;;;;;;;;;;;15.38;51.86;98721.09;104447;1266;98714;-77
2023/05/11 07:06:02;;;;;;;7.50;4.70;;;;;;;15.49;50.80;98721.41;104335;1267;111906;-76
2023/05/11 07:08:29;;;;;;;7.70;3.70;;;;;;;15.59;51.07;98718.13;104528;1260;97862;-75
2023/05/11 07:10:57;;;;;;;4.80;3.10;;;;;;;15.94;50.89;98720.51;104684;1259;97919;-77
2023/05/11 07:13:24;;;;;;;5.40;4.10;;;;;;;16.18;48.90;98716.97;104671;1274;97948;-78
2023/05/11 07:15:51;;;;;;;9.90;3.60;;;;;;;16.26;48.80;98718.63;104738;1259;97918;-79
2023/05/11 07:18:23;;;;;;;6.50;3.80;;;;;;;16.49;49.11;98715.80;104645;1266;112153;-77
2023/05/11 07:20:50;;;;;;;4.40;3.60;;;;;;;16.85;48.56;98718.32;104390;1259;98278;-78
2023/05/11 07:23:17;;;;;;;6.70;4.00;;;;;;;17.08;47.94;98713.10;104458;1276;99251;-78
2023/05/11 07:25:45;;;;;;;7.40;3.50;;;;;;;17.32;47.88;98712.02;104505;1266;99113;-82
2023/05/11 07:28:12;;;;;;;5.30;3.50;;;;;;;17.52;47.72;98707.19;104511;1264;97850;-83
2023/05/11 07:30:40;;;;;;;6.30;2.70;;;;;;;17.77;46.26;98705.93;104702;1264;97913;-78
2023/05/11 07:33:07;;;;;;;8.30;3.00;;;;;;;17.90;45.31;98707.19;104610;1264;97998;-78
2023/05/11 07:35:34;;;;;;;3.90;2.90;;;;;;;18.02;44.92;98703.47;104625;1264;99305;-73
2023/05/11 07:38:02;;;;;;;4.30;2.60;;;;;;;18.37;44.77;98705.63;104706;1263;97963;-77
2023/05/11 07:40:29;;;;;;;2.80;2.00;;;;;;;18.63;41.68;98707.33;104748;1263;99099;-79
2023/05/11 07:42:57;;;;;;;5.60;2.60;;;;;;;18.66;40.84;98706.60;104664;1266;98000;-78
2023/05/11 07:45:24;;;;;;;3.00;2.00;;;;;;;18.82;41.17;98703.56;104732;1260;98486;-78
2023/05/11 07:47:52;;;;;;;2.50;1.90;;;;;;;19.10;40.46;98701.83;104670;1266;98040;-78
2023/05/11 07:50:19;;;;;;;2.60;1.60;;;;;;;19.36;39.65;98705.52;104581;1259;98122;-78
2023/05/11 07:52:49;;;;;;;;;;;;;;;19.41;37.95;98707.75;104569;1268;98016;-78
2023/05/11 07:55:18;;;;;;;1.40;1.30;;;;;;;19.37;37.90;98705.38;104571;1264;97979;-78
2023/05/11 07:57:46;;;;;;;2.80;1.50;;;;;;;19.54;36.98;98707.55;104685;1264;99278;-78
2023/05/11 08:00:14;;;;;;;3.00;1.40;;;;;;;19.67;36.82;98706.55;104682;1264;97957;-78
2023/05/11 08:02:41;;;;;;;1.70;1.60;;;;;;;19.56;36.02;98704.09;104689;1265;98104;-78
2023/05/11 08:05:09;;;;;;;2.00;1.50;;;;;;;19.76;36.19;98705.71;104609;1264;98967;-79
2023/05/11 08:07:36;;;;;;;2.00;1.70;;;;;;;20.04;35.62;98702.88;104620;1266;98726;-80
2023/05/11 08:10:07;;;;;;;;;;;;;;;20.35;35.29;98703.27;104744;1259;98572;-80
2023/05/11 08:12:36;;;;;;;3.90;1.60;;;;;;;20.38;34.42;98703.38;104506;1268;108178;-80
2023/05/11 08:15:04;;;;;;;2.70;2.10;;;;;;;20.43;35.13;98701.69;104536;1265;98036;-80
2023/05/11 08:17:32;;;;;;;3.80;1.70;;;;;;;20.71;35.55;98699.84;104599;1259;98227;-80
2023/05/11 08:19:59;;;;;;;5.70;2.20;;;;;;;20.99;35.21;98700.70;104581;1275;98274;-77
2023/05/11 08:22:26;;;;;;;1.70;1.60;;;;;;;21.21;34.88;98701.54;104695;1264;97983;-80
2023/05/11 08:24:53;;;;;;;2.00;1.50;;;;;;;21.48;33.98;98697.84;104547;1275;97942;-79
2023/05/11 08:27:21;;;;;;;2.90;1.60;;;;;;;21.39;33.21;98695.38;104711;1263;97960;-79
2023/05/11 08:29:48;;;;;;;1.70;1.30;;;;;;;21.43;33.00;98697.64;104797;1263;97925;-80
2023/05/11 08:32:15;;;;;;;1.90;1.20;;;;;;;21.77;32.78;98694.38;104625;1263;98015;-79
2023/05/11 08:34:43;;;;;;;4.30;1.50;;;;;;;21.99;31.48;98691.96;104706;1276;98561;-78
2023/05/11 08:37:10;;;;;;;1.60;1.50;;;;;;;22.12;31.88;98693.86;104794;1260;97930;-79
2023/05/11 08:39:37;;;;;;;1.70;1.40;;;;;;;22.39;30.99;98689.17;104694;1266;97938;-81
2023/05/11 08:42:16;;;;;;;2.50;1.30;;;;;;;22.55;30.14;98686.20;104596;1259;99116;-79
2023/05/11 08:44:45;;;;;;;1.80;1.10;;;;;;;22.65;30.30;98689.91;104606;1264;113521;-78
2023/05/11 08:47:13;;;;;;;1.40;1.10;;;;;;;22.89;30.30;98683.10;104615;1265;99139;-81
2023/05/11 08:49:43;;;;;;;2.00;1.40;;;;;;;23.20;30.13;98683.99;104650;1260;107624;-79
2023/05/11 08:52:13;;;;;;;2.80;1.20;;;;;;;23.08;28.39;98683.27;104657;1262;97963;-79
2023/05/11 08:54:40;;;;;;;2.90;1.30;;;;;;;22.82;28.83;98684.20;104677;1264;97945;-79
2023/05/11 08:57:09;;;;;;;1.90;1.30;;;;;;;23.05;29.09;98676.56;104390;1265;98263;-79
2023/05/11 08:59:36;;;;;;;2.50;1.40;;;;;;;23.26;29.18;98674.49;104762;1265;99399;-81
2023/05/11 09:02:06;;;;;;;1.50;1.40;;;;;;;23.19;28.55;98674.16;104607;1265;108086;-81
2023/05/11 09:04:35;;;;;;;4.60;3.00;;;;;;;23.44;28.95;98670.90;104753;1265;97938;-81
2023/05/11 09:07:03;;;;;;;2.80;1.40;;;;;;;23.60;28.40;98672.71;104763;1273;98721;-79
2023/05/11 09:09:30;;;;;;;2.20;1.70;;;;;;;23.60;28.63;98669.77;104663;1265;111236;-79
2023/05/11 09:11:58;;;;;;;3.00;1.70;;;;;;;23.96;28.65;98663.91;104633;1264;97970;-80
2023/05/11 09:14:26;;;;;;;2.60;1.60;;;;;;;23.93;28.45;98667.61;104551;1264;108158;-80
2023/05/11 09:16:53;;;;;;;3.10;1.40;;;;;;;24.25;28.97;98669.17;104778;1264;97952;-81
2023/05/11 09:19:20;;;;;;;4.10;1.70;;;;;;;24.65;27.80;98666.81;104646;1278;98169;-81
2023/05/11 09:21:47;;;;;;;4.70;1.80;;;;;;;24.86;27.61;98662.52;104622;1263;98015;-81
2023/05/11 09:24:15;;;;;;;3.60;1.70;;;;;;;25.16;27.90;98663.43;104587;1265;101301;-81
2023/05/11 09:26:42;;;;;;;2.50;1.60;;;;;;;25.20;27.05;98666.04;104771;1259;98462;-79
2023/05/11 09:29:10;;;;;;;2.90;1.60;;;;;;;25.07;26.62;98660.14;104761;1275;98043;-83
2023/05/11 09:31:39;;;;;;;2.30;1.60;;;;;;;24.80;26.58;98658.64;104788;1263;97987;-82
2023/05/11 09:34:20;;;;;;;3.50;1.90;;;;;;;24.80;27.55;98660.86;104777;1265;111679;-83
2023/05/11 09:36:51;;;;;;;3.60;1.80;;;;;;;24.66;27.46;98661.52;104665;1263;99508;-82
2023/05/11 09:39:33;;;;;;;3.50;1.90;;;;;;;24.97;27.27;98656.36;104405;1268;107809;-83
2023/05/11 09:42:17;;;;;;;2.00;1.40;;;;;;;25.00;25.97;98659.31;104435;1276;98066;-84
2023/05/11 09:44:45;;;;;;;2.10;1.60;;;;;;;24.83;25.27;98657.65;104554;1266;98119;-84
2023/05/11 09:47:15;;;;;;;1.70;1.50;;;;;;;24.10;26.29;98658.57;104734;1265;111172;-79
2023/05/11 09:49:45;;;;;;;1.80;1.50;;;;;;;23.44;27.08;98660.58;104617;1267;98124;-82
2023/05/11 09:52:14;;;;;;;3.00;1.70;;;;;;;22.66;28.56;98658.79;104482;1268;107580;-82
2023/05/11 09:54:44;;;;;;;2.50;1.80;;;;;;;22.17;29.29;98651.45;104688;1264;97961;-83
2023/05/11 09:57:26;;;;;;;1.80;1.60;;;;;;;22.28;29.61;98651.42;104592;1266;98505;-82
2023/05/11 09:59:55;;;;;;;1.70;1.40;;;;;;;22.32;29.28;98654.54;104613;1266;111739;-82
2023/05/11 10:02:27;;;;;;;2.50;1.90;;;;;;;21.87;29.46;98650.45;104760;1264;99093;-77
2023/05/11 10:04:59;;;;;;;3.20;1.90;;;;;;;21.93;29.39;98646.66;104552;1263;106387;-81
2023/05/11 10:07:31;;;;;;;1.80;1.70;;;;;;;22.06;29.55;98644.95;104640;1263;98568;-83
2023/05/11 10:10:06;;;;;;;2.70;1.90;;;;;;;22.46;29.36;98643.25;104342;1268;98000;-87
2023/05/11 10:12:37;;;;;;;2.40;1.50;;;;;;;22.63;28.61;98640.43;104938;1269;109987;-82
2023/05/11 10:15:07;;;;;;;2.00;1.70;;;;;;;22.68;27.54;98641.57;104671;1265;99957;-81
2023/05/11 10:17:35;;;;;;;2.40;2.00;;;;;;;22.46;27.57;98641.25;104671;1265;107748;-82
2023/05/11 10:20:05;;;;;;;2.20;1.90;;;;;;;22.43;28.33;98641.96;104639;1260;97915;-82
2023/05/11 10:22:32;;;;;;;3.10;1.80;;;;;;;22.38;27.84;98638.77;104691;1272;97951;-83
2023/05/11 10:25:01;;;;;;;2.20;1.70;;;;;;;22.34;27.31;98636.27;104569;1266;111950;-83
2023/05/11 10:27:30;;;;;;;2.00;1.50;;;;;;;22.53;27.01;98632.50;104685;1279;98195;-84
2023/05/11 10:29:58;;;;;;;1.50;1.30;;;;;;;22.67;26.48;98629.52;104741;1264;107561;-78
2023/05/11 10:32:26;;;;;;;3.20;2.10;;;;;;;22.55;26.23;98629.23;104760;1265;98014;-82
2023/05/11 10:34:55;;;;;;;2.30;1.50;;;;;;;22.54;26.61;98629.06;104643;1261;98092;-80
2023/05/11 10:37:23;;;;;;;1.60;1.40;;;;;;;22.89;26.49;98621.16;104447;1268;110538;-82
2023/05/11 10:39:51;;;;;;;2.10;1.60;;;;;;;22.80;26.10;98621.86;104433;1260;98364;-81
2023/05/11 10:42:32;;;;;;;3.70;1.60;;;;;;;23.04;26.36;98614.04;104526;1268;106371;-81
2023/05/11 10:45:24;;;;;;;2.00;1.20;;;;;;;23.82;25.36;98616.23;104722;1265;97980;-81
2023/05/11 10:48:22;;;;;;;3.10;1.40;;;;;;;23.92;23.51;98615.88;104689;1259;97926;-83
2023/05/11 10:51:25;;;;;;;2.80;1.40;;;;;;;23.67;23.40;98606.70;104382;1260;110814;-80
2023/05/11 10:54:06;;;;;;;1.70;1.50;;;;;;;23.91;24.15;98603.96;104702;1260;99053;-79
2023/05/11 10:56:43;;;;;;;2.30;1.10;;;;;;;24.38;22.96;98604.95;104580;1260;108784;-79
2023/05/11 10:59:29;;;;;;;1.90;1.60;;;;;;;24.40;23.03;98603.02;104710;1264;98040;-78
2023/05/11 11:02:00;;;;;;;2.60;1.20;;;;;;;24.45;21.82;98597.22;104541;1261;99158;-78
2023/05/11 11:04:49;;;;;;;1.60;1.40;;;;;;;24.29;21.93;98598.92;104460;1265;112073;-76
2023/05/11 11:07:18;;;;;;;1.60;1.30;;;;;;;24.50;21.64;98593.27;104581;1265;99455;-64
2023/05/11 11:09:52;;;;;;;3.70;1.50;;;;;;;24.07;21.05;98600.46;104859;1265;108249;-65
2023/05/11 11:12:20;;;;;;;2.40;1.70;;;;;;;23.85;22.08;98599.60;104700;1264;98033;-64
2023/05/11 11:14:54;;;;;;;2.90;1.30;;;;;;;23.95;21.39;98593.55;104626;1266;98244;-66
2023/05/11 11:17:27;;;;;;;2.30;1.20;;;;;;;23.88;21.48;98598.14;104336;1269;112298;-63
2023/05/11 11:19:54;;;;;;;2.80;1.40;;;;;;;23.79;21.97;98586.19;104692;1259;98111;-64
2023/05/11 11:22:34;;;;;;;4.10;1.40;;;;;;;24.02;21.64;98579.36;104711;1260;98013;-65
2023/05/11 11:25:06;;;;;;;1.60;1.30;;;;;;;24.14;21.20;98588.83;104511;1259;98015;-63
2023/05/11 11:27:39;;;;;;;1.90;1.70;;;;;;;24.27;20.97;98587.34;104653;1265;99222;-68
2023/05/11 11:30:18;;;;;;;1.60;1.20;;;;;;;24.57;21.32;98586.51;104521;1265;112289;-64
2023/05/11 11:32:47;;;;;;;1.50;1.40;;;;;;;24.57;21.04;98583.14;104575;1267;98162;-64
2023/05/11 11:35:42;;;;;;;1.50;1.40;;;;;;;25.14;21.07;98584.61;104709;1266;108716;-65
2023/05/11 11:38:15;;;;;;;1.50;1.40;;;;;;;25.84;20.45;98581.71;104546;1268;98044;-65